sensor_id;sensor_type;location;lat;lon;timestamp;temperature;humidity
50969;DHT22;36982;51.474;7.228;2024-03-23T00:56:02;6.90;99.90
50969;DHT22;36982;51.474;7.228;2024-03-23T00:58:28;6.90;99.90
50969;DHT22;36982;51.474;7.228;2024-03-23T01:00:54;6.90;99.90
50969;DHT22;36982;51.474;7.228;2024-03-23T01:03:19;7.00;99.90
50969;DHT22;36982;51.474;7.228;2024-03-23T01:05:45;7.00;99.90
50969;DHT22;36982;51.474;7.228;2024-03-23T01:08:10;6.90;99.90
50969;DHT22;36982;51.474;7.228;2024-03-23T01:10:36;6.90;99.90
50969;DHT22;36982;51.474;7.228;2024-03-23T01:13:02;6.90;99.90
50969;DHT22;36982;51.474;7.228;2024-03-23T01:15:27;6.80;99.90
50969;DHT22;36982;51.474;7.228;2024-03-23T01:17:53;6.80;99.90
50969;DHT22;36982;51.474;7.228;2024-03-23T01:20:18;6.90;99.90
50969;DHT22;36982;51.474;7.228;2024-03-23T01:22:44;6.80;99.90
50969;DHT22;36982;51.474;7.228;2024-03-23T01:25:10;6.80;99.90
50969;DHT22;36982;51.474;7.228;2024-03-23T01:27:35;6.70;99.90
50969;DHT22;36982;51.474;7.228;2024-03-23T01:30:01;6.60;99.90
50969;DHT22;36982;51.474;7.228;2024-03-23T01:32:26;6.60;99.90
50969;DHT22;36982;51.474;7.228;2024-03-23T01:34:52;6.50;99.90
50969;DHT22;36982;51.474;7.228;2024-03-23T01:37:17;6.40;99.90
50969;DHT22;36982;51.474;7.228;2024-03-23T01:39:43;6.40;99.90
50969;DHT22;36982;51.474;7.228;2024-03-23T01:42:09;6.50;99.90
50969;DHT22;36982;51.474;7.228;2024-03-23T01:44:34;6.50;99.90
50969;DHT22;36982;51.474;7.228;2024-03-23T01:47:00;6.50;99.90
50969;DHT22;36982;51.474;7.228;2024-03-23T01:49:48;6.50;99.90
50969;DHT22;36982;51.474;7.228;2024-03-23T01:52:13;6.60;99.90
50969;DHT22;36982;51.474;7.228;2024-03-23T01:54:40;6.60;99.90
50969;DHT22;36982;51.474;7.228;2024-03-23T01:57:06;6.60;99.90
50969;DHT22;36982;51.474;7.228;2024-03-23T01:59:32;6.60;99.90
50969;DHT22;36982;51.474;7.228;2024-03-23T02:01:58;6.60;99.90
50969;DHT22;36982;51.474;7.228;2024-03-23T02:04:23;6.60;99.90
50969;DHT22;36982;51.474;7.228;2024-03-23T02:06:49;6.50;99.90
50969;DHT22;36982;51.474;7.228;2024-03-23T02:09:14;6.40;99.90
50969;DHT22;36982;51.474;7.228;2024-03-23T02:11:40;6.40;99.90
50969;DHT22;36982;51.474;7.228;2024-03-23T02:14:06;6.40;99.90
50969;DHT22;36982;51.474;7.228;2024-03-23T02:16:33;6.40;99.90
50969;DHT22;36982;51.474;7.228;2024-03-23T02:18:58;6.50;99.90
50969;DHT22;36982;51.474;7.228;2024-03-23T02:21:24;6.50;99.90
50969;DHT22;36982;51.474;7.228;2024-03-23T02:23:50;6.60;99.90
50969;DHT22;36982;51.474;7.228;2024-03-23T02:26:15;6.50;99.90
50969;DHT22;36982;51.474;7.228;2024-03-23T02:28:42;6.40;99.90
50969;DHT22;36982;51.474;7.228;2024-03-23T02:31:07;6.20;99.90
50969;DHT22;36982;51.474;7.228;2024-03-23T02:33:33;6.30;99.90
50969;DHT22;36982;51.474;7.228;2024-03-23T02:36:00;6.40;99.90
50969;DHT22;36982;51.474;7.228;2024-03-23T02:38:25;6.40;99.90
50969;DHT22;36982;51.474;7.228;2024-03-23T02:40:51;6.50;99.90
50969;DHT22;36982;51.474;7.228;2024-03-23T02:43:16;6.30;99.90
50969;DHT22;36982;51.474;7.228;2024-03-23T02:45:42;6.40;99.90
50969;DHT22;36982;51.474;7.228;2024-03-23T02:48:08;6.50;99.90
50969;DHT22;36982;51.474;7.228;2024-03-23T02:50:33;6.60;99.90
50969;DHT22;36982;51.474;7.228;2024-03-23T02:52:59;6.80;99.90
50969;DHT22;36982;51.474;7.228;2024-03-23T02:55:24;6.80;99.90
50969;DHT22;36982;51.474;7.228;2024-03-23T02:57:50;6.70;99.90
50969;DHT22;36982;51.474;7.228;2024-03-23T03:00:16;6.70;99.90
50969;DHT22;36982;51.474;7.228;2024-03-23T03:02:41;6.60;99.90
50969;DHT22;36982;51.474;7.228;2024-03-23T03:05:07;6.60;99.90
50969;DHT22;36982;51.474;7.228;2024-03-23T03:07:34;6.70;99.90
50969;DHT22;36982;51.474;7.228;2024-03-23T03:09:59;6.50;99.90
50969;DHT22;36982;51.474;7.228;2024-03-23T03:12:25;6.60;99.90
50969;DHT22;36982;51.474;7.228;2024-03-23T03:14:51;6.60;99.90
50969;DHT22;36982;51.474;7.228;2024-03-23T03:17:16;6.60;99.90
50969;DHT22;36982;51.474;7.228;2024-03-23T03:19:42;6.50;99.90
50969;DHT22;36982;51.474;7.228;2024-03-23T03:22:07;6.40;99.90
50969;DHT22;36982;51.474;7.228;2024-03-23T03:24:33;6.50;99.90
50969;DHT22;36982;51.474;7.228;2024-03-23T03:26:59;6.40;99.90
50969;DHT22;36982;51.474;7.228;2024-03-23T03:29:25;6.30;99.90
50969;DHT22;36982;51.474;7.228;2024-03-23T03:31:50;6.30;99.90
50969;DHT22;36982;51.474;7.228;2024-03-23T03:34:16;6.30;99.90
50969;DHT22;36982;51.474;7.228;2024-03-23T03:36:42;6.20;99.90
50969;DHT22;36982;51.474;7.228;2024-03-23T03:39:07;6.20;99.90
50969;DHT22;36982;51.474;7.228;2024-03-23T03:41:33;6.20;99.90
50969;DHT22;36982;51.474;7.228;2024-03-23T03:43:59;6.20;99.90
50969;DHT22;36982;51.474;7.228;2024-03-23T03:46:30;6.30;99.90
50969;DHT22;36982;51.474;7.228;2024-03-23T03:48:56;6.30;99.90
50969;DHT22;36982;51.474;7.228;2024-03-23T03:51:21;6.30;99.90
50969;DHT22;36982;51.474;7.228;2024-03-23T03:53:47;6.30;99.90
50969;DHT22;36982;51.474;7.228;2024-03-23T03:56:12;6.30;99.90
50969;DHT22;36982;51.474;7.228;2024-03-23T03:58:38;6.30;99.90
50969;DHT22;36982;51.474;7.228;2024-03-23T04:01:05;6.30;99.90
50969;DHT22;36982;51.474;7.228;2024-03-23T04:03:30;6.30;99.90
50969;DHT22;36982;51.474;7.228;2024-03-23T04:05:56;6.30;99.90
50969;DHT22;36982;51.474;7.228;2024-03-23T04:08:22;6.20;99.90
50969;DHT22;36982;51.474;7.228;2024-03-23T04:10:47;6.20;99.90
50969;DHT22;36982;51.474;7.228;2024-03-23T04:13:13;6.10;99.90
50969;DHT22;36982;51.474;7.228;2024-03-23T04:15:39;6.10;99.90
50969;DHT22;36982;51.474;7.228;2024-03-23T04:18:05;6.10;99.90
50969;DHT22;36982;51.474;7.228;2024-03-23T04:20:31;6.10;99.90
50969;DHT22;36982;51.474;7.228;2024-03-23T04:22:58;6.10;99.90
50969;DHT22;36982;51.474;7.228;2024-03-23T04:25:23;6.10;99.90
50969;DHT22;36982;51.474;7.228;2024-03-23T04:27:49;6.10;99.90
50969;DHT22;36982;51.474;7.228;2024-03-23T04:30:15;6.10;99.90
50969;DHT22;36982;51.474;7.228;2024-03-23T04:32:41;6.20;99.90
50969;DHT22;36982;51.474;7.228;2024-03-23T04:35:07;6.10;99.90
50969;DHT22;36982;51.474;7.228;2024-03-23T04:37:36;6.00;99.90
50969;DHT22;36982;51.474;7.228;2024-03-23T04:40:03;6.10;99.90
50969;DHT22;36982;51.474;7.228;2024-03-23T04:42:29;6.20;99.90
50969;DHT22;36982;51.474;7.228;2024-03-23T04:44:54;6.00;99.90
50969;DHT22;36982;51.474;7.228;2024-03-23T04:47:20;6.10;99.90
50969;DHT22;36982;51.474;7.228;2024-03-23T04:49:46;6.10;99.90
50969;DHT22;36982;51.474;7.228;2024-03-23T04:52:12;6.10;99.90
50969;DHT22;36982;51.474;7.228;2024-03-23T04:54:37;6.10;99.90
50969;DHT22;36982;51.474;7.228;2024-03-23T04:57:05;6.10;99.90
50969;DHT22;36982;51.474;7.228;2024-03-23T04:59:31;6.10;99.90
50969;DHT22;36982;51.474;7.228;2024-03-23T05:01:57;6.10;99.90
50969;DHT22;36982;51.474;7.228;2024-03-23T05:04:23;6.10;99.90
50969;DHT22;36982;51.474;7.228;2024-03-23T05:06:48;6.00;99.90
50969;DHT22;36982;51.474;7.228;2024-03-23T05:09:14;6.00;99.90
50969;DHT22;36982;51.474;7.228;2024-03-23T05:11:40;6.00;99.90
50969;DHT22;36982;51.474;7.228;2024-03-23T05:14:07;6.00;99.90
50969;DHT22;36982;51.474;7.228;2024-03-23T05:16:32;6.00;99.90
50969;DHT22;36982;51.474;7.228;2024-03-23T05:18:58;6.00;99.90
50969;DHT22;36982;51.474;7.228;2024-03-23T05:21:24;6.00;99.90
50969;DHT22;36982;51.474;7.228;2024-03-23T05:24:09;6.10;99.90
50969;DHT22;36982;51.474;7.228;2024-03-23T05:26:35;6.00;99.90
50969;DHT22;36982;51.474;7.228;2024-03-23T05:29:02;6.00;99.90
50969;DHT22;36982;51.474;7.228;2024-03-23T05:31:30;6.00;99.90
50969;DHT22;36982;51.474;7.228;2024-03-23T05:33:55;6.00;99.90
50969;DHT22;36982;51.474;7.228;2024-03-23T05:36:21;6.00;99.90
50969;DHT22;36982;51.474;7.228;2024-03-23T05:38:47;6.10;99.90
50969;DHT22;36982;51.474;7.228;2024-03-23T05:41:13;6.10;99.90
50969;DHT22;36982;51.474;7.228;2024-03-23T05:43:39;6.20;99.90
50969;DHT22;36982;51.474;7.228;2024-03-23T05:46:04;6.20;99.90
50969;DHT22;36982;51.474;7.228;2024-03-23T05:48:31;6.20;99.90
50969;DHT22;36982;51.474;7.228;2024-03-23T05:50:57;6.10;99.90
50969;DHT22;36982;51.474;7.228;2024-03-23T05:53:23;6.20;99.90
50969;DHT22;36982;51.474;7.228;2024-03-23T05:55:50;6.10;99.90
50969;DHT22;36982;51.474;7.228;2024-03-23T05:58:17;6.10;99.90
50969;DHT22;36982;51.474;7.228;2024-03-23T06:00:43;6.10;99.90
50969;DHT22;36982;51.474;7.228;2024-03-23T06:03:09;6.10;99.90
50969;DHT22;36982;51.474;7.228;2024-03-23T06:05:38;6.00;99.90
50969;DHT22;36982;51.474;7.228;2024-03-23T06:08:04;6.20;99.90
50969;DHT22;36982;51.474;7.228;2024-03-23T06:10:31;6.20;99.90
50969;DHT22;36982;51.474;7.228;2024-03-23T06:12:59;6.30;99.90
50969;DHT22;36982;51.474;7.228;2024-03-23T06:15:25;6.20;99.90
50969;DHT22;36982;51.474;7.228;2024-03-23T06:17:50;6.20;99.90
50969;DHT22;36982;51.474;7.228;2024-03-23T06:20:16;6.30;99.90
50969;DHT22;36982;51.474;7.228;2024-03-23T06:22:42;6.40;99.90
50969;DHT22;36982;51.474;7.228;2024-03-23T06:25:08;6.40;99.90
50969;DHT22;36982;51.474;7.228;2024-03-23T06:27:33;6.40;99.90
50969;DHT22;36982;51.474;7.228;2024-03-23T06:29:59;6.40;99.90
50969;DHT22;36982;51.474;7.228;2024-03-23T06:32:25;6.40;99.90
50969;DHT22;36982;51.474;7.228;2024-03-23T06:34:51;6.30;99.90
50969;DHT22;36982;51.474;7.228;2024-03-23T06:37:16;6.30;99.90
50969;DHT22;36982;51.474;7.228;2024-03-23T06:39:42;6.30;99.90
50969;DHT22;36982;51.474;7.228;2024-03-23T06:42:07;6.30;99.90
50969;DHT22;36982;51.474;7.228;2024-03-23T06:44:33;6.40;99.90
50969;DHT22;36982;51.474;7.228;2024-03-23T06:46:59;6.40;99.90
50969;DHT22;36982;51.474;7.228;2024-03-23T06:49:25;6.40;99.90
50969;DHT22;36982;51.474;7.228;2024-03-23T06:51:50;6.40;99.90
50969;DHT22;36982;51.474;7.228;2024-03-23T06:54:17;6.30;99.90
50969;DHT22;36982;51.474;7.228;2024-03-23T06:56:44;6.40;99.90
50969;DHT22;36982;51.474;7.228;2024-03-23T06:59:09;6.40;99.90
50969;DHT22;36982;51.474;7.228;2024-03-23T07:01:35;6.40;99.90
50969;DHT22;36982;51.474;7.228;2024-03-23T07:04:01;6.40;99.90
50969;DHT22;36982;51.474;7.228;2024-03-23T07:06:26;6.30;99.90
50969;DHT22;36982;51.474;7.228;2024-03-23T07:08:52;6.30;99.90
50969;DHT22;36982;51.474;7.228;2024-03-23T07:11:22;6.60;99.90
50969;DHT22;36982;51.474;7.228;2024-03-23T07:13:51;6.50;99.90
50969;DHT22;36982;51.474;7.228;2024-03-23T07:16:17;6.60;99.90
50969;DHT22;36982;51.474;7.228;2024-03-23T07:18:43;6.50;99.90
50969;DHT22;36982;51.474;7.228;2024-03-23T07:21:09;6.50;99.90
50969;DHT22;36982;51.474;7.228;2024-03-23T07:23:34;6.40;99.90
50969;DHT22;36982;51.474;7.228;2024-03-23T07:26:04;6.60;99.90
50969;DHT22;36982;51.474;7.228;2024-03-23T07:28:31;6.70;99.90
50969;DHT22;36982;51.474;7.228;2024-03-23T07:31:05;6.70;99.90
50969;DHT22;36982;51.474;7.228;2024-03-23T07:33:31;6.70;99.90
50969;DHT22;36982;51.474;7.228;2024-03-23T07:35:56;6.80;99.90
50969;DHT22;36982;51.474;7.228;2024-03-23T07:38:23;6.90;99.90
50969;DHT22;36982;51.474;7.228;2024-03-23T07:40:49;7.00;99.90
50969;DHT22;36982;51.474;7.228;2024-03-23T07:43:19;6.90;99.90
50969;DHT22;36982;51.474;7.228;2024-03-23T07:45:52;7.10;99.90
50969;DHT22;36982;51.474;7.228;2024-03-23T07:48:18;7.10;99.90
50969;DHT22;36982;51.474;7.228;2024-03-23T07:50:44;7.20;99.90
50969;DHT22;36982;51.474;7.228;2024-03-23T07:53:09;7.10;99.90
50969;DHT22;36982;51.474;7.228;2024-03-23T07:55:35;7.20;99.90
50969;DHT22;36982;51.474;7.228;2024-03-23T07:58:01;7.40;99.90
50969;DHT22;36982;51.474;7.228;2024-03-23T08:00:26;7.40;99.90
50969;DHT22;36982;51.474;7.228;2024-03-23T08:02:52;7.30;99.90
50969;DHT22;36982;51.474;7.228;2024-03-23T08:05:17;7.40;99.90
50969;DHT22;36982;51.474;7.228;2024-03-23T08:07:43;7.60;99.90
50969;DHT22;36982;51.474;7.228;2024-03-23T08:10:08;7.60;99.90
50969;DHT22;36982;51.474;7.228;2024-03-23T08:12:34;7.70;99.90
50969;DHT22;36982;51.474;7.228;2024-03-23T08:14:59;7.80;99.90
50969;DHT22;36982;51.474;7.228;2024-03-23T08:17:25;8.00;99.90
50969;DHT22;36982;51.474;7.228;2024-03-23T08:19:51;8.00;99.90
50969;DHT22;36982;51.474;7.228;2024-03-23T08:22:18;8.10;99.90
50969;DHT22;36982;51.474;7.228;2024-03-23T08:24:43;8.30;99.90
50969;DHT22;36982;51.474;7.228;2024-03-23T08:27:09;8.30;99.60
50969;DHT22;36982;51.474;7.228;2024-03-23T08:29:34;8.30;99.70
50969;DHT22;36982;51.474;7.228;2024-03-23T08:32:00;8.30;99.60
50969;DHT22;36982;51.474;7.228;2024-03-23T08:34:26;8.40;99.90
50969;DHT22;36982;51.474;7.228;2024-03-23T08:36:51;8.30;97.10
50969;DHT22;36982;51.474;7.228;2024-03-23T08:39:17;8.30;97.60
50969;DHT22;36982;51.474;7.228;2024-03-23T08:41:43;8.30;94.80
50969;DHT22;36982;51.474;7.228;2024-03-23T08:44:11;8.30;94.90
50969;DHT22;36982;51.474;7.228;2024-03-23T08:46:37;8.30;92.70
50969;DHT22;36982;51.474;7.228;2024-03-23T08:49:02;8.30;92.50
50969;DHT22;36982;51.474;7.228;2024-03-23T08:51:28;8.30;91.30
50969;DHT22;36982;51.474;7.228;2024-03-23T08:53:53;8.20;91.00
50969;DHT22;36982;51.474;7.228;2024-03-23T08:56:19;8.20;91.40
50969;DHT22;36982;51.474;7.228;2024-03-23T08:58:45;8.30;90.10
50969;DHT22;36982;51.474;7.228;2024-03-23T09:01:12;8.40;89.40
50969;DHT22;36982;51.474;7.228;2024-03-23T09:03:40;8.50;82.50
50969;DHT22;36982;51.474;7.228;2024-03-23T09:06:15;8.40;38.90
50969;DHT22;36982;51.474;7.228;2024-03-23T09:08:41;8.50;35.00
50969;DHT22;36982;51.474;7.228;2024-03-23T09:11:09;8.50;28.40
50969;DHT22;36982;51.474;7.228;2024-03-23T09:13:35;8.30;18.80
50969;DHT22;36982;51.474;7.228;2024-03-23T09:16:02;8.30;12.50
50969;DHT22;36982;51.474;7.228;2024-03-23T09:18:30;8.30;17.80
50969;DHT22;36982;51.474;7.228;2024-03-23T09:20:56;8.20;22.20
50969;DHT22;36982;51.474;7.228;2024-03-23T09:23:22;8.20;22.00
50969;DHT22;36982;51.474;7.228;2024-03-23T09:25:48;8.10;26.80
50969;DHT22;36982;51.474;7.228;2024-03-23T09:28:13;8.10;35.10
50969;DHT22;36982;51.474;7.228;2024-03-23T09:30:39;8.00;45.10
50969;DHT22;36982;51.474;7.228;2024-03-23T09:33:11;8.10;43.20
50969;DHT22;36982;51.474;7.228;2024-03-23T09:35:41;7.80;44.60
50969;DHT22;36982;51.474;7.228;2024-03-23T09:38:07;7.70;51.80
50969;DHT22;36982;51.474;7.228;2024-03-23T09:40:34;7.70;45.10
50969;DHT22;36982;51.474;7.228;2024-03-23T09:43:00;7.70;46.70
50969;DHT22;36982;51.474;7.228;2024-03-23T09:45:29;8.00;35.70
50969;DHT22;36982;51.474;7.228;2024-03-23T09:47:55;8.10;31.40
50969;DHT22;36982;51.474;7.228;2024-03-23T09:50:22;8.20;29.80
50969;DHT22;36982;51.474;7.228;2024-03-23T09:52:48;8.10;30.60
50969;DHT22;36982;51.474;7.228;2024-03-23T09:55:13;8.00;35.10
50969;DHT22;36982;51.474;7.228;2024-03-23T09:57:42;8.30;31.80
50969;DHT22;36982;51.474;7.228;2024-03-23T10:00:08;8.50;30.00
50969;DHT22;36982;51.474;7.228;2024-03-23T10:02:34;8.70;32.90
50969;DHT22;36982;51.474;7.228;2024-03-23T10:05:00;9.00;21.10
50969;DHT22;36982;51.474;7.228;2024-03-23T10:07:26;9.20;13.10
50969;DHT22;36982;51.474;7.228;2024-03-23T10:09:54;9.10;1.00
50969;DHT22;36982;51.474;7.228;2024-03-23T10:12:20;9.20;1.00
50969;DHT22;36982;51.474;7.228;2024-03-23T10:14:46;9.30;1.00
50969;DHT22;36982;51.474;7.228;2024-03-23T10:17:16;9.00;1.00
50969;DHT22;36982;51.474;7.228;2024-03-23T10:19:46;9.10;1.00
50969;DHT22;36982;51.474;7.228;2024-03-23T10:22:23;9.20;1.00
50969;DHT22;36982;51.474;7.228;2024-03-23T10:24:49;9.20;1.00
50969;DHT22;36982;51.474;7.228;2024-03-23T10:27:19;9.20;1.00
50969;DHT22;36982;51.474;7.228;2024-03-23T10:29:49;9.30;1.00
50969;DHT22;36982;51.474;7.228;2024-03-23T10:32:16;9.40;1.00
50969;DHT22;36982;51.474;7.228;2024-03-23T10:34:42;9.50;1.00
50969;DHT22;36982;51.474;7.228;2024-03-23T10:37:08;9.70;1.00
50969;DHT22;36982;51.474;7.228;2024-03-23T10:39:39;9.80;1.00
50969;DHT22;36982;51.474;7.228;2024-03-23T10:42:06;9.90;1.00
50969;DHT22;36982;51.474;7.228;2024-03-23T10:44:33;9.80;1.00
50969;DHT22;36982;51.474;7.228;2024-03-23T10:47:00;9.90;1.00
50969;DHT22;36982;51.474;7.228;2024-03-23T10:49:33;10.00;99.90
50969;DHT22;36982;51.474;7.228;2024-03-23T10:52:00;10.00;99.90
50969;DHT22;36982;51.474;7.228;2024-03-23T10:54:27;10.30;99.90
50969;DHT22;36982;51.474;7.228;2024-03-23T10:57:01;10.40;99.90
50969;DHT22;36982;51.474;7.228;2024-03-23T10:59:27;10.00;99.90
50969;DHT22;36982;51.474;7.228;2024-03-23T11:01:55;9.80;99.90
50969;DHT22;36982;51.474;7.228;2024-03-23T11:04:38;9.80;99.90
50969;DHT22;36982;51.474;7.228;2024-03-23T11:09:53;8.90;1.00
50969;DHT22;36982;51.474;7.228;2024-03-23T11:14:53;7.10;2.70
50969;DHT22;36982;51.474;7.228;2024-03-23T11:17:23;6.60;23.50
50969;DHT22;36982;51.474;7.228;2024-03-23T11:20:02;6.30;31.20
50969;DHT22;36982;51.474;7.228;2024-03-23T11:25:22;6.20;43.40
50969;DHT22;36982;51.474;7.228;2024-03-23T11:30:34;6.30;37.90
50969;DHT22;36982;51.474;7.228;2024-03-23T11:33:02;6.50;49.70
50969;DHT22;36982;51.474;7.228;2024-03-23T11:35:32;6.70;55.60
50969;DHT22;36982;51.474;7.228;2024-03-23T11:40:27;6.80;45.30
50969;DHT22;36982;51.474;7.228;2024-03-23T11:43:03;7.00;51.00
50969;DHT22;36982;51.474;7.228;2024-03-23T11:46:06;7.10;48.90
50969;DHT22;36982;51.474;7.228;2024-03-23T11:48:28;7.20;39.20
50969;DHT22;36982;51.474;7.228;2024-03-23T11:50:56;7.30;36.70
50969;DHT22;36982;51.474;7.228;2024-03-23T11:53:24;7.50;47.10
50969;DHT22;36982;51.474;7.228;2024-03-23T11:55:53;7.50;24.50
50969;DHT22;36982;51.474;7.228;2024-03-23T11:58:20;7.60;16.80
50969;DHT22;36982;51.474;7.228;2024-03-23T12:00:51;7.60;20.00
50969;DHT22;36982;51.474;7.228;2024-03-23T12:03:20;7.90;15.00
50969;DHT22;36982;51.474;7.228;2024-03-23T12:05:52;8.00;1.00
50969;DHT22;36982;51.474;7.228;2024-03-23T12:08:35;8.00;1.00
50969;DHT22;36982;51.474;7.228;2024-03-23T12:13:36;8.30;1.00
50969;DHT22;36982;51.474;7.228;2024-03-23T12:16:20;8.50;1.00
50969;DHT22;36982;51.474;7.228;2024-03-23T12:18:50;8.80;1.00
50969;DHT22;36982;51.474;7.228;2024-03-23T12:21:16;9.00;1.00
50969;DHT22;36982;51.474;7.228;2024-03-23T12:23:43;9.30;1.00
50969;DHT22;36982;51.474;7.228;2024-03-23T12:26:10;9.50;1.00
50969;DHT22;36982;51.474;7.228;2024-03-23T12:28:37;9.40;99.90
50969;DHT22;36982;51.474;7.228;2024-03-23T12:31:03;9.30;99.90
50969;DHT22;36982;51.474;7.228;2024-03-23T12:33:29;9.10;99.90
50969;DHT22;36982;51.474;7.228;2024-03-23T12:35:55;9.10;1.00
50969;DHT22;36982;51.474;7.228;2024-03-23T12:38:20;8.80;1.00
50969;DHT22;36982;51.474;7.228;2024-03-23T12:40:47;8.80;1.00
50969;DHT22;36982;51.474;7.228;2024-03-23T12:43:16;8.80;1.00
50969;DHT22;36982;51.474;7.228;2024-03-23T12:45:46;8.80;1.00
50969;DHT22;36982;51.474;7.228;2024-03-23T12:48:12;8.60;1.00
50969;DHT22;36982;51.474;7.228;2024-03-23T12:50:38;8.60;1.00
50969;DHT22;36982;51.474;7.228;2024-03-23T12:53:03;8.50;1.00
50969;DHT22;36982;51.474;7.228;2024-03-23T12:55:29;8.30;1.00
50969;DHT22;36982;51.474;7.228;2024-03-23T12:57:55;8.30;1.00
50969;DHT22;36982;51.474;7.228;2024-03-23T13:00:20;8.40;1.00
50969;DHT22;36982;51.474;7.228;2024-03-23T13:02:46;8.50;1.00
50969;DHT22;36982;51.474;7.228;2024-03-23T13:05:11;8.60;1.00
50969;DHT22;36982;51.474;7.228;2024-03-23T13:07:37;8.60;1.00
50969;DHT22;36982;51.474;7.228;2024-03-23T13:10:04;8.50;1.00
50969;DHT22;36982;51.474;7.228;2024-03-23T13:12:31;8.70;1.00
50969;DHT22;36982;51.474;7.228;2024-03-23T13:14:58;8.70;1.00
50969;DHT22;36982;51.474;7.228;2024-03-23T13:17:25;8.70;1.00
50969;DHT22;36982;51.474;7.228;2024-03-23T13:19:52;8.70;1.00
50969;DHT22;36982;51.474;7.228;2024-03-23T13:22:18;8.60;1.00
50969;DHT22;36982;51.474;7.228;2024-03-23T13:24:44;8.40;1.00
50969;DHT22;36982;51.474;7.228;2024-03-23T13:27:10;8.00;20.60
50969;DHT22;36982;51.474;7.228;2024-03-23T13:29:36;7.40;33.90
50969;DHT22;36982;51.474;7.228;2024-03-23T13:32:03;7.10;61.40
50969;DHT22;36982;51.474;7.228;2024-03-23T13:34:29;7.00;75.30
50969;DHT22;36982;51.474;7.228;2024-03-23T13:36:55;7.00;63.90
50969;DHT22;36982;51.474;7.228;2024-03-23T13:39:23;7.10;47.90
50969;DHT22;36982;51.474;7.228;2024-03-23T13:41:49;7.10;42.30
50969;DHT22;36982;51.474;7.228;2024-03-23T13:44:14;7.20;42.00
50969;DHT22;36982;51.474;7.228;2024-03-23T13:46:42;7.30;36.10
50969;DHT22;36982;51.474;7.228;2024-03-23T13:49:32;7.50;14.50
50969;DHT22;36982;51.474;7.228;2024-03-23T13:51:58;7.30;1.00
50969;DHT22;36982;51.474;7.228;2024-03-23T13:54:25;7.10;1.00
50969;DHT22;36982;51.474;7.228;2024-03-23T13:56:51;7.30;1.00
50969;DHT22;36982;51.474;7.228;2024-03-23T13:59:17;7.50;1.00
50969;DHT22;36982;51.474;7.228;2024-03-23T14:01:44;7.70;1.00
50969;DHT22;36982;51.474;7.228;2024-03-23T14:04:11;8.00;1.00
50969;DHT22;36982;51.474;7.228;2024-03-23T14:06:37;8.20;1.40
50969;DHT22;36982;51.474;7.228;2024-03-23T14:09:02;8.40;1.00
50969;DHT22;36982;51.474;7.228;2024-03-23T14:11:34;8.50;1.00
50969;DHT22;36982;51.474;7.228;2024-03-23T14:14:00;8.50;1.00
50969;DHT22;36982;51.474;7.228;2024-03-23T14:16:25;8.30;1.00
50969;DHT22;36982;51.474;7.228;2024-03-23T14:18:51;8.40;1.00
50969;DHT22;36982;51.474;7.228;2024-03-23T14:21:17;8.30;1.00
50969;DHT22;36982;51.474;7.228;2024-03-23T14:23:43;8.10;1.00
50969;DHT22;36982;51.474;7.228;2024-03-23T14:26:08;8.50;1.00
50969;DHT22;36982;51.474;7.228;2024-03-23T14:28:34;8.50;1.00
50969;DHT22;36982;51.474;7.228;2024-03-23T14:31:00;8.60;99.90
50969;DHT22;36982;51.474;7.228;2024-03-23T14:33:26;8.50;99.90
50969;DHT22;36982;51.474;7.228;2024-03-23T14:35:55;8.50;99.90
50969;DHT22;36982;51.474;7.228;2024-03-23T14:38:23;8.40;99.90
50969;DHT22;36982;51.474;7.228;2024-03-23T14:40:49;8.30;99.90
50969;DHT22;36982;51.474;7.228;2024-03-23T14:43:16;8.50;99.90
50969;DHT22;36982;51.474;7.228;2024-03-23T14:46:15;8.50;99.90
50969;DHT22;36982;51.474;7.228;2024-03-23T14:48:43;8.60;99.90
50969;DHT22;36982;51.474;7.228;2024-03-23T14:51:09;8.70;99.90
50969;DHT22;36982;51.474;7.228;2024-03-23T14:53:37;8.40;99.90
50969;DHT22;36982;51.474;7.228;2024-03-23T14:56:06;8.60;99.90
50969;DHT22;36982;51.474;7.228;2024-03-23T14:58:31;8.50;99.90
50969;DHT22;36982;51.474;7.228;2024-03-23T15:01:05;8.40;99.90
50969;DHT22;36982;51.474;7.228;2024-03-23T15:03:30;8.30;99.90
50969;DHT22;36982;51.474;7.228;2024-03-23T15:05:57;8.30;99.90
50969;DHT22;36982;51.474;7.228;2024-03-23T15:08:23;8.30;99.90
50969;DHT22;36982;51.474;7.228;2024-03-23T15:10:49;8.30;99.90
50969;DHT22;36982;51.474;7.228;2024-03-23T15:13:15;8.20;99.90
50969;DHT22;36982;51.474;7.228;2024-03-23T15:15:42;8.20;99.90
50969;DHT22;36982;51.474;7.228;2024-03-23T15:18:19;8.20;99.90
50969;DHT22;36982;51.474;7.228;2024-03-23T15:20:58;8.10;99.90
50969;DHT22;36982;51.474;7.228;2024-03-23T15:23:28;8.30;99.90
50969;DHT22;36982;51.474;7.228;2024-03-23T15:25:58;8.40;99.90
50969;DHT22;36982;51.474;7.228;2024-03-23T15:28:24;8.40;99.90
50969;DHT22;36982;51.474;7.228;2024-03-23T15:30:52;8.30;99.90
50969;DHT22;36982;51.474;7.228;2024-03-23T15:33:17;8.10;1.00
50969;DHT22;36982;51.474;7.228;2024-03-23T15:35:43;8.30;1.00
50969;DHT22;36982;51.474;7.228;2024-03-23T15:38:09;8.20;1.00
50969;DHT22;36982;51.474;7.228;2024-03-23T15:40:35;8.20;1.00
50969;DHT22;36982;51.474;7.228;2024-03-23T15:43:01;8.30;1.00
50969;DHT22;36982;51.474;7.228;2024-03-23T15:45:26;8.40;1.00
50969;DHT22;36982;51.474;7.228;2024-03-23T15:47:52;8.50;1.00
50969;DHT22;36982;51.474;7.228;2024-03-23T15:50:18;8.40;1.00
50969;DHT22;36982;51.474;7.228;2024-03-23T15:52:43;8.50;1.00
50969;DHT22;36982;51.474;7.228;2024-03-23T15:55:09;8.50;1.00
50969;DHT22;36982;51.474;7.228;2024-03-23T15:57:35;8.40;1.00
50969;DHT22;36982;51.474;7.228;2024-03-23T16:00:02;8.20;99.90
50969;DHT22;36982;51.474;7.228;2024-03-23T16:02:28;8.30;99.90
50969;DHT22;36982;51.474;7.228;2024-03-23T16:04:54;8.30;99.90
50969;DHT22;36982;51.474;7.228;2024-03-23T16:07:20;8.20;99.90
50969;DHT22;36982;51.474;7.228;2024-03-23T16:09:45;8.30;99.90
50969;DHT22;36982;51.474;7.228;2024-03-23T16:12:11;8.50;99.90
50969;DHT22;36982;51.474;7.228;2024-03-23T16:14:37;8.30;99.90
50969;DHT22;36982;51.474;7.228;2024-03-23T16:17:03;8.30;99.90
50969;DHT22;36982;51.474;7.228;2024-03-23T16:19:28;8.40;99.90
50969;DHT22;36982;51.474;7.228;2024-03-23T16:21:54;8.30;99.90
50969;DHT22;36982;51.474;7.228;2024-03-23T16:24:21;8.30;99.90
50969;DHT22;36982;51.474;7.228;2024-03-23T16:26:46;8.20;99.90
50969;DHT22;36982;51.474;7.228;2024-03-23T16:29:12;8.10;99.90
50969;DHT22;36982;51.474;7.228;2024-03-23T16:31:38;8.00;99.90
50969;DHT22;36982;51.474;7.228;2024-03-23T16:34:03;8.10;99.90
50969;DHT22;36982;51.474;7.228;2024-03-23T16:36:29;8.00;99.90
50969;DHT22;36982;51.474;7.228;2024-03-23T16:38:55;8.00;99.90
50969;DHT22;36982;51.474;7.228;2024-03-23T16:41:21;8.00;99.90
50969;DHT22;36982;51.474;7.228;2024-03-23T16:43:46;8.00;99.90
50969;DHT22;36982;51.474;7.228;2024-03-23T16:46:13;7.90;99.90
50969;DHT22;36982;51.474;7.228;2024-03-23T16:48:41;8.00;99.90
50969;DHT22;36982;51.474;7.228;2024-03-23T16:51:08;7.70;99.90
50969;DHT22;36982;51.474;7.228;2024-03-23T16:53:35;7.80;1.00
50969;DHT22;36982;51.474;7.228;2024-03-23T16:56:05;7.70;1.00
50969;DHT22;36982;51.474;7.228;2024-03-23T16:58:33;7.70;1.00